Terminal Aerodrome Forecast
Issued by NWS Cleveland, OH

Home | Current Version | Previous Version | Graphics & Text | Print | Product List | Glossary On
Versions: 1 2 3 4 5 6 7 8 9 10 11 12 13 14 15 16 17 18
000
FTUS41 KCLE 210520
TAFYNG
TAF
KYNG 210520Z 2106/2206 VRB03KT P6SM SCT045 BKN080
     FM210900 VRB03KT 6SM BR SCT025 BKN080
      TEMPO 2109/2113 4SM BR BKN025
     FM211600 33006KT P6SM SCT045
      TEMPO 2116/2120 BKN045
     FM220000 35003KT P6SM SCT250=

USA.gov is the U.S. government's official web portal to all federal, state and local government web resources and services.